This is the latest recevied weather packets stored in our database for station/object CE3MXM-13. If no packets are shown the sender has not sent any weather packets the latest 10 day(s).
| Time | Temp. | Humidity | Pressure | Rain* | Wind** | Luminosity | Snow |
|---|---|---|---|---|---|---|---|
| 1777665195 | 17.22° C | 71% | 1016.6 hPa | - | - | - | - |
| 1777664895 | 17.78° C | 70% | 1016.4 hPa | - | - | - | - |
| 1777664595 | 17.78° C | 70% | 1016.6 hPa | - | - | - | - |
| 1777664295 | 17.78° C | 70% | 1016.6 hPa | - | - | - | - |
| 1777663995 | 17.22° C | 71% | 1016.5 hPa | - | - | - | - |
| 1777663695 | 17.78° C | 71% | 1016.3 hPa | - | - | - | - |
| 1777663394 | 17.22° C | 72% | 1016.5 hPa | - | - | - | - |
| 1777663094 | 17.22° C | 74% | 1016.5 hPa | - | - | - | - |
| 1777662794 | 17.22° C | 73% | 1016.4 hPa | - | - | - | - |
| 1777662494 | 16.67° C | 75% | 1016.5 hPa | - | - | - | - |
| 1777662194 | 16.11° C | 75% | 1016.5 hPa | - | - | - | - |
| 1777661894 | 16.67° C | 74% | 1016.3 hPa | - | - | - | - |
| 1777661594 | 16.67° C | 74% | 1016.4 hPa | - | - | - | - |
| 1777661294 | 16.67° C | 75% | 1016.3 hPa | - | - | - | - |
| 1777660994 | 16.67° C | 77% | 1016.3 hPa | - | - | - | - |
| 1777660694 | 15.56° C | 78% | 1016.5 hPa | - | - | - | - |
| 1777660393 | 15.56° C | 79% | 1016.3 hPa | - | - | - | - |
| 1777660093 | 15° C | 81% | 1016.2 hPa | - | - | - | - |
| 1777659793 | 15° C | 82% | 1016.2 hPa | - | - | - | - |
| 1777659493 | 15.56° C | 82% | 1016.2 hPa | - | - | - | - |
| 1777659193 | 15° C | 82% | 1016.3 hPa | - | - | - | - |
| 1777658893 | 15° C | 82% | 1016.1 hPa | - | - | - | - |
| 1777658593 | 15° C | 82% | 1016.2 hPa | - | - | - | - |
| 1777658293 | 15° C | 83% | 1016.1 hPa | - | - | - | - |
| 1777657993 | 15° C | 82% | 1016.2 hPa | - | - | - | - |
* Rain since midnight (hover to see other rain measurements)
** Current wind speed in m/s (hover to see current wind gust speed)